Time;durP1;ratioP1;P1;durP2;ratioP2;P2;SDS_P1;SDS_P2;PMS_P1;PMS_P2;Temp;Humidity;BMP_temperature;BMP_pressure;BME280_temperature;BME280_humidity;BME280_pressure;Samples;Min_cycle;Max_cycle;Signal;HPM_P1;HPM_P2
2021/12/30 00:00:51;;;;;;;39.40;8.40;;;;;;;10.79;97.22;100929.88;4936536;29;20047;-72
2021/12/30 00:03:16;;;;;;;42.60;8.40;;;;;;;10.85;96.97;100925.44;4954861;29;20097;-73
2021/12/30 00:05:42;;;;;;;42.70;9.15;;;;;;;10.79;97.17;100928.00;4955752;29;20817;-75
2021/12/30 00:08:08;;;;;;;37.38;7.95;;;;;;;10.79;97.57;100935.28;4938241;29;20463;-73
2021/12/30 00:10:33;;;;;;;41.35;8.40;;;;;;;10.79;97.49;100927.16;4955593;29;20046;-74
2021/12/30 00:12:59;;;;;;;38.47;8.90;;;;;;;10.86;97.54;100925.22;4936539;29;20039;-74
2021/12/30 00:15:25;;;;;;;45.60;9.18;;;;;;;10.85;97.65;100931.69;4955010;29;20376;-73
2021/12/30 00:17:51;;;;;;;39.30;8.70;;;;;;;10.86;97.51;100927.09;4955018;29;20495;-73
2021/12/30 00:20:17;;;;;;;39.00;9.00;;;;;;;10.86;97.75;100929.81;4955196;29;20067;-75
2021/12/30 00:22:43;;;;;;;36.50;8.80;;;;;;;10.91;97.38;100935.38;4955418;29;20043;-73
2021/12/30 00:25:10;;;;;;;37.70;9.43;;;;;;;10.86;97.37;100940.66;4937872;29;20031;-75
2021/12/30 00:27:35;;;;;;;43.25;9.63;;;;;;;10.88;97.46;100933.13;4954584;29;20027;-74
2021/12/30 00:30:02;;;;;;;41.63;9.52;;;;;;;10.87;97.52;100929.59;4954933;29;20394;-73
2021/12/30 00:32:27;;;;;;;40.63;9.60;;;;;;;10.90;97.50;100925.59;4935321;29;20031;-74
2021/12/30 00:34:53;;;;;;;37.40;10.30;;;;;;;10.89;97.89;100934.78;4955176;29;20058;-74
2021/12/30 00:37:18;;;;;;;43.40;9.27;;;;;;;10.90;97.87;100934.56;4954877;29;20053;-74
2021/12/30 00:39:44;;;;;;;36.70;8.98;;;;;;;10.90;97.77;100941.81;4955137;29;20113;-74
2021/12/30 00:42:09;;;;;;;47.05;10.63;;;;;;;10.93;97.79;100947.63;4939013;29;20039;-76
2021/12/30 00:44:34;;;;;;;46.60;9.27;;;;;;;10.94;97.93;100948.47;4923607;29;20031;-73
2021/12/30 00:47:00;;;;;;;46.00;8.65;;;;;;;10.98;97.61;100949.66;4937783;29;20074;-75
2021/12/30 00:49:26;;;;;;;39.58;8.70;;;;;;;10.96;98.19;100957.16;4954776;29;20075;-73
2021/12/30 00:51:52;;;;;;;35.53;8.15;;;;;;;10.97;98.04;100961.53;4936567;29;20081;-75
2021/12/30 00:54:17;;;;;;;43.40;8.38;;;;;;;10.98;98.15;100949.66;4954324;28;20035;-75
2021/12/30 00:56:43;;;;;;;41.65;8.75;;;;;;;11.01;98.12;100964.66;4942861;29;20059;-75
2021/12/30 00:59:08;;;;;;;39.17;8.63;;;;;;;11.01;97.81;100962.75;4935188;29;20475;-73
2021/12/30 01:01:34;;;;;;;37.55;8.10;;;;;;;11.03;98.26;100957.94;4937024;29;20054;-73
2021/12/30 01:03:59;;;;;;;39.25;7.78;;;;;;;11.07;98.06;100961.03;4954562;29;20039;-73
2021/12/30 01:06:25;;;;;;;40.10;7.68;;;;;;;11.05;98.09;100961.25;4954553;29;20039;-73
2021/12/30 01:08:50;;;;;;;30.45;7.35;;;;;;;11.08;98.31;100959.97;4954870;29;20486;-73
2021/12/30 01:11:15;;;;;;;35.20;8.00;;;;;;;11.07;98.33;100956.44;4944288;29;20455;-75
2021/12/30 01:13:44;;;;;;;32.78;6.65;;;;;;;11.09;98.71;100961.63;4935427;29;20055;-74
2021/12/30 01:16:18;;;;;;;42.58;8.15;;;;;;;11.10;98.53;100966.00;4918349;29;20375;-73
2021/12/30 01:21:21;;;;;;;40.85;7.95;;;;;;;11.15;98.50;100972.38;4954399;29;20035;-75
2021/12/30 01:23:46;;;;;;;36.03;7.13;;;;;;;11.15;98.53;100972.38;4954016;29;20118;-74
2021/12/30 01:26:12;;;;;;;38.08;7.85;;;;;;;11.17;98.97;100964.88;4936796;29;20148;-74
2021/12/30 01:28:38;;;;;;;36.83;8.15;;;;;;;11.21;99.27;100969.84;4954725;29;20036;-74
2021/12/30 01:31:04;;;;;;;41.55;7.85;;;;;;;11.20;99.02;100974.41;4954203;29;20050;-73
2021/12/30 01:33:30;;;;;;;38.05;7.38;;;;;;;11.28;98.73;100976.81;4954175;29;20031;-74
2021/12/30 01:35:55;;;;;;;34.55;7.07;;;;;;;11.25;99.13;100971.88;4936877;29;20090;-73
2021/12/30 01:38:20;;;;;;;37.65;8.38;;;;;;;11.28;99.30;100971.41;4954269;29;20039;-73
2021/12/30 01:40:48;;;;;;;32.60;7.07;;;;;;;11.34;99.07;100980.50;4954058;29;20070;-74
2021/12/30 01:43:14;;;;;;;32.40;7.68;;;;;;;11.32;99.41;100975.31;4937784;29;20142;-75
2021/12/30 01:45:42;;;;;;;44.33;8.57;;;;;;;11.35;99.60;100974.88;4935214;29;20032;-75
2021/12/30 01:48:08;;;;;;;44.08;9.25;;;;;;;11.35;99.62;100963.19;4934760;29;20475;-74
2021/12/30 01:50:34;;;;;;;36.75;8.18;;;;;;;11.35;99.87;100960.47;4934872;29;20095;-76
2021/12/30 01:52:59;;;;;;;35.55;7.90;;;;;;;11.39;100.00;100969.81;4935094;29;20386;-73
2021/12/30 01:55:25;;;;;;;31.95;7.70;;;;;;;11.41;100.00;100962.28;4918193;29;20091;-73
2021/12/30 01:57:51;;;;;;;42.08;9.30;;;;;;;11.42;100.00;100972.06;4934844;29;20031;-73
2021/12/30 02:00:22;;;;;;;36.40;7.72;;;;;;;11.44;100.00;100964.53;4934893;29;20524;-75
2021/12/30 02:02:48;;;;;;;39.35;8.88;;;;;;;11.46;100.00;100962.44;4947302;29;20538;-73
2021/12/30 02:05:13;;;;;;;38.88;8.70;;;;;;;11.49;99.99;100961.97;4954893;28;20039;-73
2021/12/30 02:07:39;;;;;;;33.72;7.97;;;;;;;11.49;100.00;100958.44;4947446;29;20083;-74
2021/12/30 02:10:05;;;;;;;36.50;8.25;;;;;;;11.50;100.00;100958.22;4938908;29;20054;-74
2021/12/30 02:12:33;;;;;;;36.75;8.05;;;;;;;11.52;100.00;100961.50;4921248;29;20031;-73
2021/12/30 02:14:59;;;;;;;35.10;9.00;;;;;;;11.52;100.00;100966.94;4938403;29;20482;-75
2021/12/30 02:17:24;;;;;;;34.30;7.88;;;;;;;11.54;100.00;100966.72;4938063;29;20119;-75
2021/12/30 02:19:49;;;;;;;33.85;8.52;;;;;;;11.52;100.00;100960.69;4938488;29;20027;-73
2021/12/30 02:22:15;;;;;;;35.42;9.38;;;;;;;11.57;100.00;100973.56;4921181;29;20120;-74
2021/12/30 02:24:49;;;;;;;33.55;8.32;;;;;;;11.58;100.00;100970.63;4939181;29;20031;-75
2021/12/30 02:27:14;;;;;;;35.55;8.18;;;;;;;11.57;100.00;100968.16;4938117;29;20110;-75
2021/12/30 02:29:40;;;;;;;33.83;7.72;;;;;;;11.57;100.00;100968.97;4921226;29;20460;-75
2021/12/30 02:32:05;;;;;;;36.58;9.20;;;;;;;11.58;100.00;100965.22;4942477;29;20039;-75
2021/12/30 02:34:31;;;;;;;30.90;7.75;;;;;;;11.62;100.00;100968.28;4956912;29;20031;-75
2021/12/30 02:36:56;;;;;;;27.08;7.32;;;;;;;11.63;100.00;100972.66;4957321;29;20051;-74
2021/12/30 02:39:23;;;;;;;29.98;8.35;;;;;;;11.66;100.00;100970.28;4956680;29;20042;-74
2021/12/30 02:41:49;;;;;;;28.08;7.40;;;;;;;11.65;100.00;100968.63;4956923;29;20042;-75
2021/12/30 02:44:15;;;;;;;25.17;7.45;;;;;;;11.68;100.00;100973.63;4957000;29;20027;-74
2021/12/30 02:46:41;;;;;;;26.67;8.15;;;;;;;11.69;100.00;100963.59;4957169;29;20031;-73
2021/12/30 02:49:07;;;;;;;25.17;7.00;;;;;;;11.70;100.00;100973.38;4956827;29;20058;-73
2021/12/30 02:51:33;;;;;;;26.45;7.55;;;;;;;11.72;100.00;100968.56;4956838;29;20494;-74
2021/12/30 02:53:59;;;;;;;22.17;7.53;;;;;;;11.70;100.00;100974.22;4939318;29;20537;-74
2021/12/30 02:56:26;;;;;;;25.45;7.13;;;;;;;11.70;100.00;100973.38;4939520;29;20039;-75
2021/12/30 02:58:52;;;;;;;24.90;7.43;;;;;;;11.69;100.00;100974.44;4924570;29;20394;-74
2021/12/30 03:01:29;;;;;;;24.10;7.60;;;;;;;11.73;100.00;100982.94;4939660;29;20063;-74
2021/12/30 03:03:57;;;;;;;22.33;7.32;;;;;;;11.72;100.00;100984.81;4956659;29;20066;-76
2021/12/30 03:06:23;;;;;;;21.13;7.20;;;;;;;11.71;100.00;100977.72;4939168;29;20027;-73
2021/12/30 03:08:50;;;;;;;18.55;6.60;;;;;;;11.73;100.00;100978.34;4934160;29;20038;-74
2021/12/30 03:11:16;;;;;;;21.50;6.82;;;;;;;11.72;100.00;100984.81;4937053;29;20040;-75
2021/12/30 03:13:44;;;;;;;20.25;6.20;;;;;;;11.73;100.00;100988.34;4937214;29;20031;-73
2021/12/30 03:16:20;;;;;;;15.32;6.85;;;;;;;11.76;100.00;100988.75;4937288;29;20051;-76
2021/12/30 03:18:48;;;;;;;14.90;6.57;;;;;;;11.74;100.00;100990.00;4937454;29;20070;-75
2021/12/30 03:21:15;;;;;;;17.08;6.22;;;;;;;11.76;100.00;100983.31;4920291;29;20534;-74
2021/12/30 03:23:42;;;;;;;11.93;6.18;;;;;;;11.75;100.00;100991.69;4938715;29;20035;-75
2021/12/30 03:26:09;;;;;;;12.30;5.75;;;;;;;11.75;100.00;100981.66;4937008;29;20039;-75
2021/12/30 03:28:35;;;;;;;15.60;5.97;;;;;;;11.76;100.00;100987.88;4936766;29;20391;-73
2021/12/30 03:31:00;;;;;;;15.80;6.05;;;;;;;11.77;100.00;101001.22;4937247;29;20036;-75
2021/12/30 03:33:28;;;;;;;12.63;5.90;;;;;;;11.79;100.00;100988.28;4936921;29;20035;-75
2021/12/30 03:35:53;;;;;;;12.00;5.68;;;;;;;11.75;100.00;100987.06;4937172;29;20057;-75
2021/12/30 03:38:19;;;;;;;8.48;4.95;;;;;;;11.77;100.00;100982.22;4942118;29;20377;-74
2021/12/30 03:40:44;;;;;;;12.68;5.80;;;;;;;11.78;100.00;100988.50;4938974;29;20050;-75
2021/12/30 03:43:09;;;;;;;8.77;5.53;;;;;;;11.76;100.00;100977.91;4938965;29;20038;-75
2021/12/30 03:45:35;;;;;;;9.38;5.07;;;;;;;11.82;100.00;100986.97;4938688;29;20035;-76
2021/12/30 03:48:00;;;;;;;8.43;5.00;;;;;;;11.83;100.00;100986.75;4954434;29;20027;-75
2021/12/30 03:50:29;;;;;;;9.82;5.22;;;;;;;11.83;100.00;100978.59;4938627;29;20035;-76
2021/12/30 03:52:57;;;;;;;11.63;5.43;;;;;;;11.86;100.00;100988.16;4938220;29;20418;-74
2021/12/30 03:55:24;;;;;;;7.65;5.10;;;;;;;11.87;100.00;100990.66;4944660;29;20035;-74
2021/12/30 03:57:52;;;;;;;8.48;5.47;;;;;;;11.93;100.00;100986.22;4935684;29;20367;-74
2021/12/30 04:00:18;;;;;;;11.60;5.70;;;;;;;11.92;100.00;100987.25;4955664;29;20046;-74
2021/12/30 04:02:44;;;;;;;9.80;6.40;;;;;;;11.97;100.00;100989.28;4952798;29;20502;-74
2021/12/30 04:05:10;;;;;;;10.73;6.72;;;;;;;12.02;100.00;100992.16;4938541;29;20110;-74
2021/12/30 04:07:36;;;;;;;9.20;6.88;;;;;;;12.00;100.00;100999.69;4938224;29;20027;-74
2021/12/30 04:10:02;;;;;;;13.13;8.70;;;;;;;12.11;100.00;100998.06;4955751;29;20035;-75
2021/12/30 04:12:27;;;;;;;14.10;10.05;;;;;;;12.12;100.00;100989.69;4940113;29;20046;-75
2021/12/30 04:14:53;;;;;;;15.02;10.05;;;;;;;12.12;100.00;100992.41;4937188;29;20036;-74
2021/12/30 04:17:18;;;;;;;17.08;10.82;;;;;;;12.12;100.00;100997.81;4936126;29;20038;-74
2021/12/30 04:19:43;;;;;;;16.40;11.05;;;;;;;12.20;100.00;101000.22;4936323;29;20060;-73
2021/12/30 04:22:09;;;;;;;18.83;11.63;;;;;;;12.17;100.00;101011.53;4935986;29;20070;-75
2021/12/30 04:24:34;;;;;;;17.20;12.27;;;;;;;12.21;100.00;101012.75;4936033;29;20080;-73
2021/12/30 04:27:00;;;;;;;19.10;13.63;;;;;;;12.22;100.00;101010.84;4936527;29;20050;-74
2021/12/30 04:29:25;;;;;;;18.25;15.05;;;;;;;12.23;100.00;101009.78;4934161;29;20027;-74
2021/12/30 04:31:50;;;;;;;19.73;14.88;;;;;;;12.23;100.00;101015.22;4918993;29;20039;-75
2021/12/30 04:34:15;;;;;;;18.17;14.63;;;;;;;12.27;100.00;101013.69;4936018;29;20059;-75
2021/12/30 04:36:41;;;;;;;20.38;14.95;;;;;;;12.30;100.00;101015.09;4918523;29;20051;-75
2021/12/30 04:39:07;;;;;;;22.52;16.10;;;;;;;12.38;100.00;101018.31;4935769;29;20463;-75
2021/12/30 04:41:33;;;;;;;20.52;15.27;;;;;;;12.37;100.00;101015.84;4918551;29;20130;-75
2021/12/30 04:43:59;;;;;;;21.13;16.65;;;;;;;12.36;100.00;101003.31;4935906;29;20027;-73
2021/12/30 04:46:24;;;;;;;20.83;16.45;;;;;;;12.38;100.00;101003.94;4935393;29;20458;-75
2021/12/30 04:48:50;;;;;;;19.35;16.15;;;;;;;12.38;100.00;101022.94;4918762;29;20506;-74
2021/12/30 04:51:16;;;;;;;20.98;17.73;;;;;;;12.41;100.00;101030.59;4918743;29;20063;-73
2021/12/30 04:53:42;;;;;;;23.17;17.52;;;;;;;12.39;100.00;101019.13;4935230;29;20035;-74
2021/12/30 04:56:07;;;;;;;20.13;17.15;;;;;;;12.41;100.00;101027.88;4945700;29;20115;-74
2021/12/30 04:58:33;;;;;;;19.23;17.20;;;;;;;12.46;100.00;101022.56;4937368;29;20498;-73
2021/12/30 05:00:58;;;;;;;18.52;16.52;;;;;;;12.50;100.00;101014.78;4934320;29;20047;-74
2021/12/30 05:03:23;;;;;;;19.58;16.60;;;;;;;12.45;100.00;101025.53;4954570;29;20054;-75
2021/12/30 05:05:51;;;;;;;20.23;17.02;;;;;;;12.47;100.00;101024.25;4943063;29;20127;-73
2021/12/30 05:08:22;;;;;;;18.45;16.45;;;;;;;12.50;100.00;101025.63;4935635;29;20035;-74
2021/12/30 05:10:48;;;;;;;18.07;15.73;;;;;;;12.52;100.00;101029.78;4936040;29;20522;-75
2021/12/30 05:13:15;;;;;;;17.40;15.50;;;;;;;12.50;100.00;101031.06;4934232;29;20024;-75
2021/12/30 05:15:41;;;;;;;17.17;14.73;;;;;;;12.57;100.00;101026.38;4935402;29;20042;-73
2021/12/30 05:18:09;;;;;;;16.77;14.27;;;;;;;12.49;100.00;101030.25;4935252;29;20031;-75
2021/12/30 05:20:36;;;;;;;15.93;14.32;;;;;;;12.53;100.00;101047.72;4935259;29;20032;-75
2021/12/30 05:23:02;;;;;;;13.50;12.10;;;;;;;12.61;100.00;101051.19;4935730;29;20042;-74
2021/12/30 05:25:27;;;;;;;11.93;10.73;;;;;;;12.58;100.00;101042.41;4935475;29;20352;-75
2021/12/30 05:27:53;;;;;;;12.02;10.82;;;;;;;12.61;100.00;101051.19;4935411;29;20055;-74
2021/12/30 05:30:21;;;;;;;11.27;9.98;;;;;;;12.62;100.00;101041.94;4936337;29;20048;-75
2021/12/30 05:32:48;;;;;;;10.68;9.45;;;;;;;12.62;100.00;101058.25;4918094;29;20123;-74
2021/12/30 05:35:13;;;;;;;9.88;8.98;;;;;;;12.63;100.00;101068.06;4934881;29;20031;-74
2021/12/30 05:37:41;;;;;;;9.00;7.97;;;;;;;12.68;100.00;101068.16;4934613;29;20054;-75
2021/12/30 05:40:08;;;;;;;8.95;8.15;;;;;;;12.73;100.00;101076.44;4936246;29;20039;-74
2021/12/30 05:42:33;;;;;;;8.20;7.45;;;;;;;12.76;100.00;101071.38;4927863;29;20126;-75
2021/12/30 05:44:59;;;;;;;7.60;7.00;;;;;;;12.82;100.00;101071.47;4930214;29;20031;-74
2021/12/30 05:47:24;;;;;;;7.50;6.90;;;;;;;12.86;100.00;101078.09;4957910;29;20027;-72
2021/12/30 05:49:50;;;;;;;7.38;6.78;;;;;;;12.78;100.00;101087.44;4929492;29;20024;-79
2021/12/30 05:52:15;;;;;;;6.97;6.38;;;;;;;12.85;100.00;101092.75;4938974;29;20383;-74
2021/12/30 05:54:42;;;;;;;7.05;6.45;;;;;;;12.76;100.00;101089.56;4923158;29;20130;-77
2021/12/30 05:57:10;;;;;;;8.38;7.57;;;;;;;12.77;100.00;101091.19;4938714;29;20546;-74
2021/12/30 05:59:47;;;;;;;8.88;8.07;;;;;;;12.88;100.00;101084.97;4957597;29;20451;-79
2021/12/30 06:02:13;;;;;;;10.23;9.23;;;;;;;12.90;100.00;101082.00;4937724;29;20047;-75
2021/12/30 06:04:41;;;;;;;10.75;9.75;;;;;;;12.81;100.00;101086.97;4924558;29;20047;-75
2021/12/30 06:07:06;;;;;;;11.73;10.63;;;;;;;12.83;100.00;101074.00;4950699;29;20478;-73
2021/12/30 06:09:32;;;;;;;12.13;10.93;;;;;;;12.87;99.71;101080.59;4934415;29;20078;-75
2021/12/30 06:11:57;;;;;;;12.35;11.15;;;;;;;12.86;100.00;101078.97;4938427;29;20028;-75
2021/12/30 06:14:22;;;;;;;11.90;10.80;;;;;;;12.85;100.00;101073.75;4938236;29;20119;-74
2021/12/30 06:16:48;;;;;;;11.63;10.52;;;;;;;12.83;100.00;101078.56;4938056;29;20036;-75
2021/12/30 06:19:13;;;;;;;10.45;9.45;;;;;;;12.84;100.00;101089.19;4921391;29;20396;-75
2021/12/30 06:21:38;;;;;;;10.10;9.10;;;;;;;12.84;100.00;101091.91;4922070;29;20039;-75
2021/12/30 06:24:04;;;;;;;10.05;8.82;;;;;;;12.84;100.00;101091.09;4921543;29;20032;-73
2021/12/30 06:26:29;;;;;;;8.25;7.53;;;;;;;12.88;99.50;101087.69;4920970;29;20436;-74
2021/12/30 06:28:55;;;;;;;8.20;7.40;;;;;;;12.85;100.00;101085.44;4938011;29;20035;-75
2021/12/30 06:31:20;;;;;;;8.32;7.53;;;;;;;12.83;100.00;101079.41;4921164;29;20019;-74
2021/12/30 06:33:46;;;;;;;7.22;6.53;;;;;;;12.83;100.00;101090.28;4941170;29;20058;-74
2021/12/30 06:36:11;;;;;;;6.80;6.15;;;;;;;12.81;100.00;101075.28;4957346;29;20055;-74
2021/12/30 06:38:37;;;;;;;7.18;6.47;;;;;;;12.82;100.00;101085.91;4939798;29;20122;-74
2021/12/30 06:41:03;;;;;;;7.10;6.45;;;;;;;12.84;100.00;101091.09;4940034;29;20133;-74
2021/12/30 06:43:29;;;;;;;6.35;5.80;;;;;;;12.81;100.00;101097.81;4939731;29;20031;-74
2021/12/30 06:45:57;;;;;;;7.10;6.40;;;;;;;12.82;99.67;101099.50;4938312;29;20042;-75
2021/12/30 06:48:27;;;;;;;6.57;5.97;;;;;;;12.85;99.24;101098.19;4939301;29;20289;-75
2021/12/30 06:51:03;;;;;;;7.53;6.50;;;;;;;12.87;99.21;101102.31;4938853;29;20046;-75
2021/12/30 06:53:35;;;;;;;6.80;5.55;;;;;;;12.86;99.45;101108.81;4938826;29;20375;-75
2021/12/30 06:56:10;;;;;;;6.32;5.60;;;;;;;12.82;99.59;101109.50;4939569;29;20383;-75
2021/12/30 06:58:44;;;;;;;8.10;5.63;;;;;;;12.82;99.49;101115.78;4939359;29;20031;-74
2021/12/30 07:01:18;;;;;;;6.88;4.97;;;;;;;12.81;99.39;101118.72;4929414;29;20046;-74
2021/12/30 07:03:51;;;;;;;6.03;4.80;;;;;;;12.85;99.32;101126.19;4933852;29;20031;-75
2021/12/30 07:06:26;;;;;;;7.35;5.15;;;;;;;12.85;98.96;101126.19;4920359;29;20114;-74
2021/12/30 07:09:00;;;;;;;5.57;5.07;;;;;;;12.85;98.97;101131.59;4919868;29;20193;-74
2021/12/30 07:11:34;;;;;;;6.43;5.78;;;;;;;12.86;98.88;101127.00;4921285;29;20032;-75
2021/12/30 07:14:08;;;;;;;7.20;5.97;;;;;;;12.82;99.51;101132.06;4920145;29;20063;-75
2021/12/30 07:16:42;;;;;;;8.85;6.55;;;;;;;12.84;99.42;101137.28;4920032;29;20031;-74
2021/12/30 07:19:19;;;;;;;8.63;7.30;;;;;;;12.90;98.85;101142.59;4920378;29;20387;-75
2021/12/30 07:21:55;;;;;;;7.65;6.85;;;;;;;12.85;99.22;101142.47;4919764;29;20031;-74
2021/12/30 07:24:33;;;;;;;9.77;7.80;;;;;;;12.89;99.01;101146.38;4920096;29;20039;-75
2021/12/30 07:27:11;;;;;;;9.50;7.63;;;;;;;12.83;99.12;101158.19;4919866;29;20034;-74
2021/12/30 07:29:49;;;;;;;10.27;7.70;;;;;;;12.88;99.09;101157.47;4919829;29;20031;-74
2021/12/30 07:32:25;;;;;;;9.05;7.75;;;;;;;12.89;98.63;101159.13;4919966;29;20408;-73
2021/12/30 07:34:59;;;;;;;10.43;8.30;;;;;;;12.85;99.42;101161.47;4936379;29;20099;-75
2021/12/30 07:37:33;;;;;;;10.40;7.93;;;;;;;12.92;98.73;101164.09;4937036;29;20451;-73
2021/12/30 07:40:06;;;;;;;9.98;6.95;;;;;;;12.85;98.92;101157.94;4938354;29;20513;-74
2021/12/30 07:42:40;;;;;;;8.05;6.82;;;;;;;12.87;99.27;101164.78;4939179;29;20449;-75
2021/12/30 07:45:14;;;;;;;10.23;6.85;;;;;;;12.83;99.58;101165.47;4943432;29;20023;-73
2021/12/30 07:47:49;;;;;;;6.85;6.18;;;;;;;12.93;98.71;101166.56;4939907;29;20059;-75
2021/12/30 07:50:22;;;;;;;7.55;6.47;;;;;;;12.90;99.39;101167.03;4939016;29;20041;-74
2021/12/30 07:52:59;;;;;;;7.47;6.70;;;;;;;12.93;98.83;101174.72;4938751;29;20039;-75
2021/12/30 07:55:32;;;;;;;11.30;6.93;;;;;;;12.92;99.39;101188.53;4938663;29;20031;-74
2021/12/30 07:58:08;;;;;;;9.18;6.53;;;;;;;12.97;98.84;101174.25;4938462;29;20058;-75
2021/12/30 08:00:43;;;;;;;6.78;6.05;;;;;;;12.97;98.80;101171.53;4932057;29;20042;-74
2021/12/30 08:03:17;;;;;;;8.63;5.90;;;;;;;12.96;98.52;101170.72;4929829;29;20055;-75
2021/12/30 08:05:51;;;;;;;6.93;5.53;;;;;;;12.94;98.98;101164.69;4937925;29;20027;-75
2021/12/30 08:08:25;;;;;;;5.80;5.03;;;;;;;12.97;97.71;101157.94;4938192;29;20031;-75
2021/12/30 08:10:59;;;;;;;8.30;5.05;;;;;;;12.92;98.60;101167.66;4937561;29;20410;-73
2021/12/30 08:13:33;;;;;;;6.40;4.80;;;;;;;12.91;97.95;101171.41;4937933;29;20536;-73
2021/12/30 08:16:12;;;;;;;5.70;4.10;;;;;;;13.01;97.65;101178.97;4921826;29;20031;-74
2021/12/30 08:18:49;;;;;;;5.80;4.30;;;;;;;12.97;97.79;101183.25;4918908;29;20038;-74
2021/12/30 08:21:28;;;;;;;7.22;3.70;;;;;;;12.94;97.58;101187.25;4933007;29;20035;-74
2021/12/30 08:23:56;;;;;;;6.93;3.75;;;;;;;12.96;97.74;101207.94;4937372;29;20027;-73
2021/12/30 08:26:21;;;;;;;5.75;3.42;;;;;;;12.96;97.56;101202.50;4955265;29;20463;-76
2021/12/30 08:28:47;;;;;;;3.65;2.95;;;;;;;12.94;97.92;101200.00;4937784;29;20023;-76
2021/12/30 08:31:13;;;;;;;4.03;2.75;;;;;;;13.00;97.74;101187.38;4937785;29;20033;-76
2021/12/30 08:33:39;;;;;;;5.55;3.08;;;;;;;12.99;97.28;101188.44;4937717;29;20059;-76
2021/12/30 08:36:05;;;;;;;3.58;2.75;;;;;;;13.03;97.19;101204.03;4937690;29;20094;-75
2021/12/30 08:38:30;;;;;;;5.18;2.83;;;;;;;13.02;97.38;101196.13;4937811;29;20043;-77
2021/12/30 08:40:56;;;;;;;4.82;3.05;;;;;;;13.06;96.77;101198.16;4937477;29;20046;-75
2021/12/30 08:43:21;;;;;;;6.93;3.40;;;;;;;13.06;97.14;101200.03;4955117;29;20023;-76
2021/12/30 08:45:47;;;;;;;4.95;3.63;;;;;;;13.03;97.20;101203.19;4922330;29;20069;-75
2021/12/30 08:48:15;;;;;;;5.50;3.80;;;;;;;13.03;97.73;101216.78;4935888;29;20066;-75
2021/12/30 08:50:40;;;;;;;6.25;3.50;;;;;;;13.02;97.80;101213.25;4918784;29;20064;-75
2021/12/30 08:53:06;;;;;;;6.55;4.00;;;;;;;13.04;97.86;101226.59;4918505;29;20031;-74
2021/12/30 08:55:31;;;;;;;6.60;3.70;;;;;;;13.06;97.59;101238.06;4935596;29;20102;-76
2021/12/30 08:57:56;;;;;;;5.13;3.40;;;;;;;13.05;97.75;101239.94;4935499;29;20471;-76
2021/12/30 09:00:25;;;;;;;6.88;3.58;;;;;;;13.08;97.66;101254.97;4935278;29;20036;-76
2021/12/30 09:02:52;;;;;;;6.47;3.75;;;;;;;13.08;97.33;101250.34;4949033;29;20494;-75
2021/12/30 09:05:17;;;;;;;8.43;4.30;;;;;;;13.10;97.24;101248.25;4953022;29;20043;-75
2021/12/30 09:07:43;;;;;;;9.13;4.15;;;;;;;13.21;96.22;101249.34;4954400;29;20042;-75
2021/12/30 09:10:11;;;;;;;5.65;4.22;;;;;;;13.16;96.77;101241.03;4954669;29;20042;-75
2021/12/30 09:12:37;;;;;;;7.65;4.72;;;;;;;13.14;97.12;101253.22;4919112;29;20032;-75
2021/12/30 09:15:05;;;;;;;6.00;4.00;;;;;;;13.19;96.97;101234.31;4918049;29;20529;-76
2021/12/30 09:17:30;;;;;;;6.32;3.92;;;;;;;13.22;96.47;101239.28;4935520;29;20487;-76
2021/12/30 09:19:55;;;;;;;8.88;4.03;;;;;;;13.23;96.97;101244.47;4934782;29;20042;-75
2021/12/30 09:22:21;;;;;;;10.13;3.90;;;;;;;13.28;96.41;101244.59;4918348;29;20040;-76
2021/12/30 09:24:46;;;;;;;7.38;3.55;;;;;;;13.27;96.29;101245.69;4918069;29;20537;-77
2021/12/30 09:27:11;;;;;;;7.55;3.53;;;;;;;13.40;95.54;101252.00;4935116;29;20047;-76
2021/12/30 09:29:37;;;;;;;7.53;3.58;;;;;;;13.44;94.51;101250.47;4935041;29;20464;-74
2021/12/30 09:32:02;;;;;;;8.85;3.00;;;;;;;13.44;94.51;101255.91;4918117;29;20063;-75
2021/12/30 09:34:28;;;;;;;5.95;3.20;;;;;;;13.49;94.03;101261.47;4933167;29;20467;-75
2021/12/30 09:36:53;;;;;;;9.68;3.15;;;;;;;13.49;93.87;101272.34;4935439;29;20055;-76
2021/12/30 09:39:19;;;;;;;7.45;2.88;;;;;;;13.49;94.21;101282.38;4937228;29;20043;-77
2021/12/30 09:41:46;;;;;;;9.07;3.45;;;;;;;13.47;93.89;101263.59;4936859;29;20027;-76
2021/12/30 09:44:13;;;;;;;10.18;3.20;;;;;;;13.53;92.72;101278.16;4937081;29;20430;-76
2021/12/30 09:46:39;;;;;;;12.70;3.60;;;;;;;13.51;93.34;101278.34;4953783;29;20031;-78
2021/12/30 09:49:07;;;;;;;10.15;3.20;;;;;;;13.48;93.57;101284.25;4936601;29;20538;-75
2021/12/30 09:51:33;;;;;;;11.90;3.10;;;;;;;13.49;93.67;101288.66;4922250;29;20056;-79
2021/12/30 09:54:00;;;;;;;12.75;3.35;;;;;;;13.50;93.30;101278.59;4935738;29;20023;-77
2021/12/30 09:56:27;;;;;;;13.57;3.70;;;;;;;13.54;92.17;101291.50;4952644;29;20121;-80
2021/12/30 09:58:52;;;;;;;18.48;3.67;;;;;;;13.52;92.53;101292.81;4954077;29;20031;-75
2021/12/30 10:01:18;;;;;;;13.30;3.42;;;;;;;13.58;91.96;101279.06;4946866;29;20059;-74
2021/12/30 10:03:45;;;;;;;15.05;3.80;;;;;;;13.53;92.42;101289.84;4949334;29;20049;-75
2021/12/30 10:06:15;;;;;;;11.40;3.72;;;;;;;13.54;91.85;101272.47;4935223;29;20036;-74
2021/12/30 10:08:53;;;;;;;12.75;3.45;;;;;;;13.56;92.44;101283.94;4940665;29;20070;-74
2021/12/30 10:11:19;;;;;;;9.90;3.15;;;;;;;13.53;92.25;101284.41;4936602;29;20505;-74
2021/12/30 10:13:53;;;;;;;12.45;3.20;;;;;;;13.60;91.60;101274.25;4948732;28;20114;-77
2021/12/30 10:16:19;;;;;;;13.00;3.53;;;;;;;13.65;90.76;101293.41;4955619;28;20099;-76
2021/12/30 10:18:57;;;;;;;12.82;3.28;;;;;;;13.63;91.28;101278.38;4941244;29;20027;-74
2021/12/30 10:21:27;;;;;;;10.07;3.17;;;;;;;13.67;91.14;101285.00;4954024;29;20062;-76
2021/12/30 10:23:55;;;;;;;15.23;3.70;;;;;;;13.68;90.82;101285.81;4936303;29;20035;-76
2021/12/30 10:26:21;;;;;;;13.90;3.45;;;;;;;13.65;90.70;101287.16;4952661;28;20049;-77
2021/12/30 10:28:49;;;;;;;14.95;4.00;;;;;;;13.64;90.90;101291.72;4920722;29;20464;-74
2021/12/30 10:31:20;;;;;;;14.77;3.40;;;;;;;13.69;90.84;101287.50;4921186;29;20038;-75
2021/12/30 10:34:04;;;;;;;12.85;3.70;;;;;;;13.69;90.92;101290.22;4937733;29;20115;-74
2021/12/30 10:36:35;;;;;;;15.80;4.13;;;;;;;13.65;90.78;101292.59;4937816;29;20509;-74
2021/12/30 10:39:34;;;;;;;12.27;3.40;;;;;;;13.70;91.12;101292.69;4938051;29;20032;-76
2021/12/30 10:42:05;;;;;;;12.63;3.22;;;;;;;13.71;90.31;101297.09;4879600;29;20045;-74
2021/12/30 10:44:51;;;;;;;15.23;3.25;;;;;;;13.78;89.89;101291.50;4937894;29;20090;-73
2021/12/30 10:47:23;;;;;;;12.38;3.90;;;;;;;13.78;88.72;101288.78;4920890;29;20082;-72
2021/12/30 10:50:05;;;;;;;15.63;3.63;;;;;;;13.81;89.56;101291.03;4937990;29;20059;-73
2021/12/30 10:52:31;;;;;;;13.20;3.42;;;;;;;13.81;88.62;101289.19;4949593;29;20031;-72
2021/12/30 10:54:58;;;;;;;14.85;3.60;;;;;;;13.81;89.58;101291.03;4956842;29;20035;-72
2021/12/30 10:57:29;;;;;;;16.85;3.83;;;;;;;13.84;89.67;101293.28;4939791;29;20034;-72
2021/12/30 10:59:56;;;;;;;14.90;3.75;;;;;;;13.83;88.27;101289.75;4939571;29;20032;-73
2021/12/30 11:02:26;;;;;;;14.70;3.40;;;;;;;13.86;88.53;101287.63;4936344;29;20056;-74
2021/12/30 11:04:57;;;;;;;12.52;3.25;;;;;;;13.86;88.66;101284.91;4947415;29;20399;-75
2021/12/30 11:07:51;;;;;;;15.95;3.55;;;;;;;13.89;88.72;101293.44;4920582;29;20457;-74
2021/12/30 11:10:28;;;;;;;15.73;3.78;;;;;;;13.88;88.48;101286.31;4937695;29;20470;-75
2021/12/30 11:12:53;;;;;;;13.20;3.63;;;;;;;13.85;88.25;101289.50;4937251;29;20036;-74
2021/12/30 11:15:23;;;;;;;13.35;3.75;;;;;;;13.82;88.34;101304.41;4920352;29;20395;-75
2021/12/30 11:17:50;;;;;;;14.77;3.13;;;;;;;13.83;88.35;101295.19;4944525;29;20031;-74
2021/12/30 11:20:18;;;;;;;13.70;3.60;;;;;;;13.89;88.17;101298.88;4937202;29;20043;-76